Time;durP1;ratioP1;P1;durP2;ratioP2;P2;SDS_P1;SDS_P2;PMS_P1;PMS_P2;Temp;Humidity;BMP_temperature;BMP_pressure;BME280_temperature;BME280_humidity;BME280_pressure;Samples;Min_cycle;Max_cycle;Signal;HPM_P1;HPM_P2
2023/07/21 00:02:02;;;;;;;;;2.00;2.00;;;;;;;;5100530;27;45263;-74
2023/07/21 00:04:27;;;;;;;;;3.00;2.67;;;;;;;;5100002;27;45619;-74
2023/07/21 00:06:53;;;;;;;;;2.33;2.33;;;;;;;;5100248;27;45265;-74
2023/07/21 00:09:19;;;;;;;;;4.00;4.00;;;;;;;;5100345;27;45587;-74
2023/07/21 00:11:44;;;;;;;;;3.00;3.00;;;;;;;;5100198;27;45368;-74
2023/07/21 00:14:10;;;;;;;;;3.00;3.00;;;;;;;;5112294;27;45373;-74
2023/07/21 00:16:35;;;;;;;;;5.00;5.00;;;;;;;;5120750;27;45303;-74
2023/07/21 00:19:01;;;;;;;;;3.33;3.00;;;;;;;;5101964;27;45364;-74
2023/07/21 00:21:26;;;;;;;;;3.33;2.33;;;;;;;;5120670;27;45320;-74
2023/07/21 00:23:52;;;;;;;;;3.67;3.67;;;;;;;;5102037;27;47190;-74
2023/07/21 00:26:17;;;;;;;;;3.00;3.00;;;;;;;;5120607;27;45248;-74
2023/07/21 00:28:43;;;;;;;;;4.33;3.00;;;;;;;;5120204;27;45286;-74
2023/07/21 00:31:09;;;;;;;;;4.33;4.00;;;;;;;;5120722;27;45248;-73
2023/07/21 00:33:34;;;;;;;;;2.67;2.67;;;;;;;;5120264;27;45295;-74
2023/07/21 00:35:59;;;;;;;;;3.00;3.00;;;;;;;;5101547;27;47020;-74
2023/07/21 00:38:25;;;;;;;;;2.67;2.67;;;;;;;;5120567;27;45283;-75
2023/07/21 00:40:50;;;;;;;;;2.00;2.00;;;;;;;;5120435;27;45294;-74
2023/07/21 00:43:18;;;;;;;;;3.33;3.33;;;;;;;;5120253;27;45363;-74
2023/07/21 00:45:43;;;;;;;;;4.00;4.00;;;;;;;;5120354;27;45312;-74
2023/07/21 00:48:09;;;;;;;;;1.67;1.67;;;;;;;;5119851;27;45347;-74
2023/07/21 00:50:41;;;;;;;;;3.67;3.67;;;;;;;;5120487;27;45326;-74
2023/07/21 00:53:07;;;;;;;;;4.00;4.00;;;;;;;;5119669;27;45475;-73
2023/07/21 00:55:32;;;;;;;;;3.00;3.00;;;;;;;;5120049;27;45354;-73
2023/07/21 00:57:58;;;;;;;;;2.00;2.00;;;;;;;;5123815;27;45344;-74
2023/07/21 01:00:24;;;;;;;;;2.00;2.00;;;;;;;;5123873;27;45487;-74
2023/07/21 01:02:49;;;;;;;;;2.33;2.33;;;;;;;;5123651;27;45345;-73
2023/07/21 01:05:17;;;;;;;;;2.67;2.00;;;;;;;;5105074;27;47008;-74
2023/07/21 01:07:42;;;;;;;;;3.00;3.00;;;;;;;;5123612;27;45240;-74
2023/07/21 01:10:08;;;;;;;;;2.00;2.00;;;;;;;;5105071;27;45331;-73
2023/07/21 01:12:33;;;;;;;;;2.00;2.00;;;;;;;;5123627;27;45483;-74
2023/07/21 01:14:58;;;;;;;;;4.00;4.00;;;;;;;;5099912;27;47430;-74
2023/07/21 01:17:24;;;;;;;;;3.00;3.00;;;;;;;;5111992;27;45246;-73
2023/07/21 01:19:50;;;;;;;;;1.00;1.00;;;;;;;;5123397;27;45239;-74
2023/07/21 01:22:24;;;;;;;;;4.33;4.33;;;;;;;;5123362;27;45405;-73
2023/07/21 01:24:49;;;;;;;;;2.00;2.00;;;;;;;;5123277;27;46270;-74
2023/07/21 01:27:16;;;;;;;;;3.25;3.25;;;;;;;;5104910;27;45415;-74
2023/07/21 01:29:43;;;;;;;;;1.33;1.33;;;;;;;;5135537;27;45304;-75
2023/07/21 01:32:10;;;;;;;;;3.00;3.00;;;;;;;;5144117;27;45348;-73
2023/07/21 01:34:36;;;;;;;;;3.00;3.00;;;;;;;;5143597;27;46538;-74
2023/07/21 01:37:02;;;;;;;;;1.00;1.00;;;;;;;;5125143;27;45191;-74
2023/07/21 01:39:28;;;;;;;;;4.00;4.00;;;;;;;;5125445;27;45266;-74
2023/07/21 01:41:54;;;;;;;;;3.00;3.00;;;;;;;;5143746;27;45179;-74
2023/07/21 01:44:21;;;;;;;;;3.00;3.00;;;;;;;;5143821;27;46501;-73
2023/07/21 01:46:47;;;;;;;;;3.67;3.67;;;;;;;;5143782;27;45352;-75
2023/07/21 01:49:12;;;;;;;;;2.33;2.33;;;;;;;;5125109;27;45471;-74
2023/07/21 01:51:39;;;;;;;;;3.33;3.33;;;;;;;;5143730;27;45467;-74
2023/07/21 01:54:08;;;;;;;;;3.00;3.00;;;;;;;;5124810;27;47093;-73
2023/07/21 01:56:40;;;;;;;;;4.67;4.00;;;;;;;;5143775;27;45357;-74
2023/07/21 01:59:05;;;;;;;;;5.00;3.00;;;;;;;;5143723;27;45468;-74
2023/07/21 02:01:32;;;;;;;;;4.67;4.00;;;;;;;;5143390;27;45339;-73
2023/07/21 02:03:57;;;;;;;;;3.33;3.33;;;;;;;;5143435;27;45352;-73
2023/07/21 02:06:22;;;;;;;;;2.00;2.00;;;;;;;;5124817;27;45389;-73
2023/07/21 02:08:47;;;;;;;;;3.33;3.33;;;;;;;;5143089;27;45307;-73
2023/07/21 02:11:12;;;;;;;;;3.00;3.00;;;;;;;;5143412;27;45238;-74
2023/07/21 02:13:39;;;;;;;;;4.67;4.67;;;;;;;;5143365;27;45252;-74
2023/07/21 02:16:04;;;;;;;;;6.00;4.33;;;;;;;;5143361;27;45323;-73
2023/07/21 02:18:30;;;;;;;;;2.67;2.67;;;;;;;;5143433;27;45391;-73
2023/07/21 02:20:55;;;;;;;;;4.67;4.00;;;;;;;;5143220;27;45445;-74
2023/07/21 02:23:20;;;;;;;;;3.33;3.00;;;;;;;;5143195;27;45307;-73
2023/07/21 02:25:45;;;;;;;;;3.67;3.67;;;;;;;;5143273;27;45365;-74
2023/07/21 02:28:10;;;;;;;;;4.00;3.67;;;;;;;;5124679;27;45279;-73
2023/07/21 02:30:35;;;;;;;;;4.00;4.00;;;;;;;;5123010;27;45337;-73
2023/07/21 02:33:01;;;;;;;;;4.67;4.00;;;;;;;;5122105;27;45324;-74
2023/07/21 02:35:27;;;;;;;;;3.00;3.00;;;;;;;;5122148;27;45361;-74
2023/07/21 02:37:52;;;;;;;;;5.00;5.00;;;;;;;;5122483;27;45259;-74
2023/07/21 02:40:18;;;;;;;;;8.00;5.67;;;;;;;;5103298;27;46480;-74
2023/07/21 02:42:43;;;;;;;;;4.00;4.00;;;;;;;;5121997;27;45935;-74
2023/07/21 02:45:08;;;;;;;;;4.00;4.00;;;;;;;;5122165;27;45313;-75
2023/07/21 02:47:34;;;;;;;;;2.33;2.33;;;;;;;;5121968;27;45303;-74
2023/07/21 02:49:59;;;;;;;;;3.00;3.00;;;;;;;;5121911;27;45342;-74
2023/07/21 02:52:27;;;;;;;;;4.67;4.67;;;;;;;;5121879;27;45220;-74
2023/07/21 02:54:52;;;;;;;;;5.00;4.33;;;;;;;;5121561;27;45346;-74
2023/07/21 02:57:17;;;;;;;;;4.67;4.67;;;;;;;;5122035;27;45575;-74
2023/07/21 02:59:43;;;;;;;;;4.67;4.00;;;;;;;;5121931;27;45313;-74
2023/07/21 03:02:08;;;;;;;;;5.00;4.00;;;;;;;;5121824;27;45247;-74
2023/07/21 03:04:34;;;;;;;;;5.00;5.00;;;;;;;;5102994;27;45414;-74
2023/07/21 03:06:59;;;;;;;;;4.33;4.33;;;;;;;;5121795;27;45444;-74
2023/07/21 03:09:25;;;;;;;;;3.00;3.00;;;;;;;;5103205;27;46087;-73
2023/07/21 03:11:51;;;;;;;;;4.00;4.00;;;;;;;;5121511;27;45350;-74
2023/07/21 03:14:16;;;;;;;;;4.00;4.00;;;;;;;;5121501;27;45232;-74
2023/07/21 03:16:41;;;;;;;;;5.00;5.00;;;;;;;;5121750;27;45318;-74
2023/07/21 03:19:07;;;;;;;;;4.00;4.00;;;;;;;;5102261;27;45954;-74
2023/07/21 03:21:32;;;;;;;;;5.33;4.33;;;;;;;;5120899;27;45279;-74
2023/07/21 03:23:57;;;;;;;;;4.00;4.00;;;;;;;;5121460;27;45325;-75
2023/07/21 03:26:22;;;;;;;;;3.33;3.00;;;;;;;;5121697;27;45290;-74
2023/07/21 03:28:48;;;;;;;;;5.00;5.00;;;;;;;;5107231;27;47526;-74
2023/07/21 03:31:13;;;;;;;;;3.67;3.67;;;;;;;;5123459;27;48008;-74
2023/07/21 03:33:38;;;;;;;;;4.33;4.00;;;;;;;;5123286;27;46028;-75
2023/07/21 03:36:04;;;;;;;;;5.67;5.67;;;;;;;;5142250;27;45598;-74
2023/07/21 03:38:31;;;;;;;;;4.67;4.00;;;;;;;;5142175;27;45445;-75
2023/07/21 03:41:00;;;;;;;;;6.00;5.00;;;;;;;;5122935;27;48631;-75
2023/07/21 03:43:25;;;;;;;;;5.00;5.00;;;;;;;;5123292;27;45370;-74
2023/07/21 03:45:57;;;;;;;;;6.00;6.00;;;;;;;;5142229;27;45353;-74
2023/07/21 03:48:23;;;;;;;;;5.33;5.00;;;;;;;;5122716;27;46280;-74
2023/07/21 03:50:48;;;;;;;;;5.00;5.00;;;;;;;;5141443;27;46250;-74
2023/07/21 03:53:13;;;;;;;;;4.00;4.00;;;;;;;;5123277;27;45299;-74
2023/07/21 03:55:39;;;;;;;;;4.33;4.33;;;;;;;;5142057;27;45393;-74
2023/07/21 03:58:04;;;;;;;;;5.67;5.67;;;;;;;;5142025;27;45567;-74
2023/07/21 04:00:29;;;;;;;;;5.00;5.00;;;;;;;;5122965;27;48466;-74
2023/07/21 04:02:54;;;;;;;;;6.67;6.67;;;;;;;;5122986;27;45338;-75
2023/07/21 04:05:19;;;;;;;;;7.33;7.33;;;;;;;;5123076;27;45401;-74
2023/07/21 04:07:44;;;;;;;;;8.00;7.00;;;;;;;;5141642;27;45248;-75
2023/07/21 04:10:10;;;;;;;;;5.67;5.67;;;;;;;;5141577;27;45374;-74
2023/07/21 04:12:35;;;;;;;;;5.33;5.33;;;;;;;;5141655;27;45323;-74
2023/07/21 04:15:00;;;;;;;;;5.33;5.33;;;;;;;;5122989;27;45337;-74
2023/07/21 04:17:25;;;;;;;;;6.33;6.00;;;;;;;;5141516;27;45509;-74
2023/07/21 04:19:51;;;;;;;;;5.67;5.67;;;;;;;;5122718;27;45382;-74
2023/07/21 04:22:16;;;;;;;;;5.00;4.67;;;;;;;;5141440;27;45340;-74
2023/07/21 04:24:41;;;;;;;;;4.33;3.67;;;;;;;;5141655;27;45294;-74
2023/07/21 04:27:06;;;;;;;;;6.67;5.33;;;;;;;;5141412;27;45354;-74
2023/07/21 04:29:32;;;;;;;;;6.33;5.67;;;;;;;;5130234;27;45344;-75
2023/07/21 04:31:57;;;;;;;;;5.67;4.00;;;;;;;;5122471;27;45262;-74
2023/07/21 04:34:22;;;;;;;;;3.00;3.00;;;;;;;;5105567;27;45366;-74
2023/07/21 04:36:47;;;;;;;;;4.00;4.00;;;;;;;;5124158;27;45286;-74
2023/07/21 04:39:12;;;;;;;;;4.00;4.00;;;;;;;;5124098;27;45339;-74
2023/07/21 04:41:38;;;;;;;;;3.00;3.00;;;;;;;;5124025;27;45287;-74
2023/07/21 04:44:03;;;;;;;;;4.33;4.33;;;;;;;;5124219;27;45313;-74
2023/07/21 04:46:28;;;;;;;;;4.00;3.67;;;;;;;;5124103;27;45381;-74
2023/07/21 04:48:55;;;;;;;;;4.33;4.33;;;;;;;;5105055;27;47104;-74
2023/07/21 04:51:21;;;;;;;;;3.67;3.67;;;;;;;;5123835;27;45416;-74
2023/07/21 04:53:46;;;;;;;;;3.33;3.33;;;;;;;;5123840;27;45330;-74
2023/07/21 04:56:13;;;;;;;;;8.00;7.00;;;;;;;;5123801;27;45172;-74
2023/07/21 04:58:38;;;;;;;;;5.00;5.00;;;;;;;;5123702;27;45440;-74
2023/07/21 05:01:03;;;;;;;;;5.00;5.00;;;;;;;;5123753;27;45120;-74
2023/07/21 05:03:28;;;;;;;;;7.00;7.00;;;;;;;;5123576;27;45203;-74
2023/07/21 05:05:54;;;;;;;;;5.00;5.00;;;;;;;;5101161;27;46155;-74
2023/07/21 05:08:20;;;;;;;;;6.33;6.33;;;;;;;;5102685;27;45485;-74
2023/07/21 05:10:46;;;;;;;;;5.00;5.00;;;;;;;;5109877;27;45689;-74
2023/07/21 05:13:11;;;;;;;;;5.00;5.00;;;;;;;;5090646;27;45431;-74
2023/07/21 05:15:36;;;;;;;;;5.33;5.33;;;;;;;;5102778;27;45480;-73
2023/07/21 05:18:02;;;;;;;;;4.00;4.00;;;;;;;;5084204;27;47194;-74
2023/07/21 05:20:27;;;;;;;;;4.67;4.67;;;;;;;;5102870;27;45334;-73
2023/07/21 05:22:52;;;;;;;;;4.00;3.67;;;;;;;;5084313;27;45307;-73
2023/07/21 05:25:18;;;;;;;;;5.00;4.00;;;;;;;;5102826;27;45712;-74
2023/07/21 05:27:46;;;;;;;;;5.00;5.00;;;;;;;;5102772;27;45302;-74
2023/07/21 05:30:11;;;;;;;;;4.67;4.67;;;;;;;;5135267;27;45176;-74
2023/07/21 05:32:38;;;;;;;;;4.00;3.33;;;;;;;;5143814;27;45305;-75
2023/07/21 05:35:09;;;;;;;;;6.00;4.33;;;;;;;;5125301;27;46418;-75
2023/07/21 05:37:34;;;;;;;;;4.00;3.33;;;;;;;;5125058;27;48639;-75
2023/07/21 05:39:59;;;;;;;;;4.00;4.00;;;;;;;;5143710;27;45337;-74
2023/07/21 05:42:24;;;;;;;;;5.00;5.00;;;;;;;;5124752;27;45288;-75
2023/07/21 05:44:49;;;;;;;;;4.00;4.00;;;;;;;;5124877;27;46112;-75
2023/07/21 05:47:15;;;;;;;;;4.00;4.00;;;;;;;;5143757;27;46068;-75
2023/07/21 05:49:40;;;;;;;;;2.00;2.00;;;;;;;;5143706;27;45297;-74
2023/07/21 05:52:06;;;;;;;;;6.00;5.67;;;;;;;;5143765;27;45307;-75
2023/07/21 05:54:31;;;;;;;;;6.00;6.00;;;;;;;;5143621;27;45450;-75
2023/07/21 05:56:58;;;;;;;;;6.00;5.33;;;;;;;;5136196;27;46137;-75
2023/07/21 05:59:23;;;;;;;;;6.00;5.33;;;;;;;;5106301;27;45493;-75
2023/07/21 06:01:51;;;;;;;;;3.67;3.67;;;;;;;;5104459;27;45249;-74
2023/07/21 06:04:16;;;;;;;;;5.00;5.00;;;;;;;;5122630;27;45298;-75
2023/07/21 06:06:41;;;;;;;;;5.00;4.00;;;;;;;;5103275;27;47183;-77
2023/07/21 06:09:06;;;;;;;;;3.67;3.67;;;;;;;;5121990;27;45341;-77
2023/07/21 06:11:32;;;;;;;;;5.00;5.00;;;;;;;;5105981;27;45718;-76
2023/07/21 06:13:57;;;;;;;;;5.00;5.00;;;;;;;;5129193;27;45497;-75
2023/07/21 06:16:22;;;;;;;;;4.33;4.00;;;;;;;;5101203;27;46163;-75
2023/07/21 06:18:49;;;;;;;;;6.33;5.00;;;;;;;;5100712;27;45306;-75
2023/07/21 06:21:14;;;;;;;;;5.00;4.67;;;;;;;;5110087;27;45460;-76
2023/07/21 06:23:39;;;;;;;;;5.33;5.00;;;;;;;;5098330;27;45870;-75
2023/07/21 06:26:04;;;;;;;;;4.67;4.67;;;;;;;;5117355;27;46262;-76
2023/07/21 06:28:30;;;;;;;;;4.00;4.00;;;;;;;;5119827;27;45342;-75
2023/07/21 06:30:55;;;;;;;;;3.67;3.67;;;;;;;;5123295;27;45461;-75
2023/07/21 06:33:20;;;;;;;;;5.67;4.67;;;;;;;;5118380;27;45374;-75
2023/07/21 06:35:45;;;;;;;;;6.00;5.33;;;;;;;;5120295;27;46314;-75
2023/07/21 06:38:11;;;;;;;;;8.33;7.67;;;;;;;;5100458;27;45420;-75
2023/07/21 06:40:36;;;;;;;;;8.00;6.00;;;;;;;;5118696;27;45432;-75
2023/07/21 06:43:01;;;;;;;;;4.67;4.67;;;;;;;;5099931;27;46119;-75
2023/07/21 06:45:26;;;;;;;;;5.00;5.00;;;;;;;;5118367;27;46075;-75
2023/07/21 06:47:51;;;;;;;;;5.33;5.33;;;;;;;;5117807;27;45397;-75
2023/07/21 06:50:17;;;;;;;;;5.00;5.00;;;;;;;;5118594;27;45346;-74
2023/07/21 06:52:42;;;;;;;;;7.00;6.33;;;;;;;;5118394;27;45318;-74
2023/07/21 06:55:07;;;;;;;;;7.33;7.33;;;;;;;;5117598;27;45937;-74
2023/07/21 06:57:32;;;;;;;;;6.33;5.67;;;;;;;;5118337;27;45385;-75
2023/07/21 06:59:58;;;;;;;;;6.00;6.00;;;;;;;;5099849;27;45512;-74
2023/07/21 07:02:23;;;;;;;;;7.00;7.00;;;;;;;;5117785;27;45413;-75
2023/07/21 07:04:48;;;;;;;;;7.33;7.00;;;;;;;;5113116;27;46032;-74
2023/07/21 07:07:14;;;;;;;;;7.00;7.00;;;;;;;;5100097;27;45504;-75
2023/07/21 07:09:39;;;;;;;;;10.33;9.00;;;;;;;;5118435;27;45481;-73
2023/07/21 07:12:06;;;;;;;;;7.00;7.00;;;;;;;;5117949;27;45392;-74
2023/07/21 07:14:31;;;;;;;;;9.33;9.33;;;;;;;;5121501;27;45599;-74
2023/07/21 07:16:56;;;;;;;;;6.67;6.67;;;;;;;;5117747;27;45585;-73
2023/07/21 07:19:21;;;;;;;;;5.67;5.67;;;;;;;;5118001;27;45413;-73
2023/07/21 07:21:47;;;;;;;;;7.00;7.00;;;;;;;;5099598;27;46536;-73
2023/07/21 07:24:12;;;;;;;;;6.00;6.00;;;;;;;;5118384;27;46060;-73
2023/07/21 07:26:37;;;;;;;;;3.00;3.00;;;;;;;;5118041;27;45871;-72
2023/07/21 07:29:03;;;;;;;;;4.00;4.00;;;;;;;;5102943;27;45687;-73
2023/07/21 07:31:29;;;;;;;;;4.00;3.00;;;;;;;;5117725;27;45485;-73
2023/07/21 07:33:54;;;;;;;;;5.00;5.00;;;;;;;;5098565;27;47356;-72
2023/07/21 07:36:20;;;;;;;;;3.67;2.67;;;;;;;;5117513;27;45295;-73
2023/07/21 07:38:45;;;;;;;;;4.00;4.00;;;;;;;;5118196;27;45439;-73
2023/07/21 07:41:10;;;;;;;;;4.33;3.67;;;;;;;;5117405;27;45509;-73
2023/07/21 07:43:36;;;;;;;;;4.00;4.00;;;;;;;;5093389;27;47316;-73
2023/07/21 07:46:07;;;;;;;;;3.00;2.00;;;;;;;;5114565;27;45366;-74
2023/07/21 07:48:33;;;;;;;;;3.33;3.33;;;;;;;;5117351;27;45807;-74
2023/07/21 07:51:01;;;;;;;;;5.33;4.00;;;;;;;;5114194;27;45519;-72
2023/07/21 07:53:27;;;;;;;;;4.00;4.00;;;;;;;;5117430;27;45887;-73
2023/07/21 07:55:52;;;;;;;;;3.33;3.33;;;;;;;;5117339;27;45336;-70
2023/07/21 07:58:17;;;;;;;;;4.00;4.00;;;;;;;;5117610;27;45533;-73
2023/07/21 08:00:44;;;;;;;;;4.00;4.00;;;;;;;;5117698;27;45594;-74
2023/07/21 08:03:09;;;;;;;;;5.67;4.00;;;;;;;;5097776;27;48306;-75
2023/07/21 08:05:35;;;;;;;;;4.00;4.00;;;;;;;;5116382;27;45479;-74
2023/07/21 08:08:02;;;;;;;;;4.33;4.00;;;;;;;;5098931;27;45530;-75
2023/07/21 08:10:28;;;;;;;;;3.00;3.00;;;;;;;;5117460;27;45578;-72
2023/07/21 08:12:56;;;;;;;;;3.00;3.00;;;;;;;;5098407;27;46251;-75
2023/07/21 08:15:22;;;;;;;;;3.00;3.00;;;;;;;;5117306;27;45350;-74
2023/07/21 08:17:48;;;;;;;;;4.67;4.00;;;;;;;;5117057;27;45390;-74
2023/07/21 08:20:13;;;;;;;;;3.33;3.33;;;;;;;;5117106;27;46212;-74
2023/07/21 08:22:38;;;;;;;;;4.33;3.33;;;;;;;;5098772;27;47025;-75
2023/07/21 08:25:05;;;;;;;;;4.00;4.00;;;;;;;;5115617;27;45469;-75
2023/07/21 08:27:33;;;;;;;;;5.00;5.00;;;;;;;;5119070;27;45597;-75
2023/07/21 08:29:59;;;;;;;;;4.67;4.67;;;;;;;;5117971;27;45653;-74
2023/07/21 08:32:24;;;;;;;;;5.00;5.00;;;;;;;;5116226;27;45506;-74
2023/07/21 08:34:49;;;;;;;;;4.00;4.00;;;;;;;;5116672;27;45401;-74
2023/07/21 08:37:14;;;;;;;;;5.67;4.00;;;;;;;;5117785;27;45323;-77
2023/07/21 08:39:41;;;;;;;;;7.67;7.67;;;;;;;;5098971;27;46424;-76
2023/07/21 08:42:08;;;;;;;;;6.00;6.00;;;;;;;;5113751;27;45386;-74
2023/07/21 08:44:34;;;;;;;;;7.00;7.00;;;;;;;;5098930;27;45481;-75
2023/07/21 08:47:00;;;;;;;;;7.00;6.00;;;;;;;;5117726;27;45511;-74
2023/07/21 08:49:26;;;;;;;;;26.33;20.00;;;;;;;;5114684;27;46462;-77
2023/07/21 08:51:51;;;;;;;;;7.67;6.00;;;;;;;;5103421;27;47181;-79
2023/07/21 08:54:16;;;;;;;;;7.00;6.67;;;;;;;;5117846;27;45601;-78
2023/07/21 08:56:41;;;;;;;;;6.67;5.67;;;;;;;;5118204;27;45563;-76
2023/07/21 08:59:06;;;;;;;;;8.67;7.67;;;;;;;;5115873;27;45432;-78
2023/07/21 09:01:31;;;;;;;;;8.00;8.00;;;;;;;;5116845;27;45620;-77
2023/07/21 09:03:57;;;;;;;;;7.00;7.00;;;;;;;;5118214;27;45440;-76
2023/07/21 09:06:22;;;;;;;;;6.00;5.67;;;;;;;;5116715;27;45390;-77
2023/07/21 09:08:47;;;;;;;;;9.00;7.00;;;;;;;;5116768;27;45470;-79
2023/07/21 09:11:12;;;;;;;;;7.33;7.33;;;;;;;;5117135;27;45693;-78
2023/07/21 09:13:38;;;;;;;;;7.33;6.00;;;;;;;;5116711;27;45874;-78
2023/07/21 09:16:05;;;;;;;;;7.00;7.00;;;;;;;;5116800;27;45722;-78
2023/07/21 09:18:41;;;;;;;;;9.00;8.00;;;;;;;;5118138;27;45408;-76
2023/07/21 09:21:07;;;;;;;;;9.00;8.67;;;;;;;;5100635;27;47440;-75
2023/07/21 09:23:32;;;;;;;;;9.33;9.33;;;;;;;;5115355;27;45333;-76
2023/07/21 09:25:58;;;;;;;;;8.67;8.67;;;;;;;;5100767;27;45819;-76
2023/07/21 09:28:37;;;;;;;;;8.00;8.00;;;;;;;;5100849;27;45463;-76
2023/07/21 09:31:02;;;;;;;;;9.00;9.00;;;;;;;;5101861;27;46437;-76
2023/07/21 09:33:28;;;;;;;;;9.00;9.00;;;;;;;;5118777;27;45460;-76
2023/07/21 09:36:04;;;;;;;;;5.67;5.67;;;;;;;;5092543;27;45437;-77
2023/07/21 09:38:29;;;;;;;;;7.00;7.00;;;;;;;;5099823;27;47275;-76
2023/07/21 09:40:59;;;;;;;;;7.67;7.67;;;;;;;;5099447;27;47328;-77
2023/07/21 09:43:24;;;;;;;;;9.67;9.00;;;;;;;;5102023;27;45907;-75
2023/07/21 09:45:50;;;;;;;;;8.67;8.00;;;;;;;;5097692;27;45515;-76
2023/07/21 09:48:16;;;;;;;;;8.33;6.33;;;;;;;;5119738;27;45606;-77
2023/07/21 09:50:41;;;;;;;;;7.00;5.67;;;;;;;;5098490;27;47711;-76
2023/07/21 09:53:07;;;;;;;;;6.67;6.67;;;;;;;;5110009;27;45479;-78
2023/07/21 09:55:36;;;;;;;;;3.67;3.67;;;;;;;;5112057;27;45362;-78
2023/07/21 09:58:04;;;;;;;;;9.67;8.67;;;;;;;;5115841;27;45616;-77
2023/07/21 10:00:31;;;;;;;;;9.33;9.33;;;;;;;;5117381;27;46027;-75
2023/07/21 10:02:57;;;;;;;;;8.67;8.67;;;;;;;;5118124;27;45296;-77
2023/07/21 10:05:23;;;;;;;;;8.00;8.00;;;;;;;;5118833;27;45475;-77
2023/07/21 10:07:53;;;;;;;;;10.67;10.67;;;;;;;;5117849;27;45385;-76
2023/07/21 10:10:19;;;;;;;;;9.00;7.67;;;;;;;;5100407;27;47658;-77
2023/07/21 10:12:46;;;;;;;;;12.67;11.67;;;;;;;;5120139;27;45325;-77
2023/07/21 10:15:12;;;;;;;;;9.00;9.00;;;;;;;;5120359;27;45424;-77
2023/07/21 10:17:42;;;;;;;;;10.33;10.00;;;;;;;;5120223;27;45547;-75
2023/07/21 10:20:08;;;;;;;;;11.00;11.00;;;;;;;;5120044;27;46484;-77
2023/07/21 10:22:33;;;;;;;;;8.00;8.00;;;;;;;;5118084;27;45317;-78
2023/07/21 10:24:59;;;;;;;;;9.00;9.00;;;;;;;;5082952;27;45350;-73
2023/07/21 10:27:26;;;;;;;;;11.67;8.67;;;;;;;;5082929;27;47708;-74
2023/07/21 10:29:52;;;;;;;;;9.67;8.00;;;;;;;;5127844;27;45437;-75
2023/07/21 10:32:18;;;;;;;;;8.67;8.33;;;;;;;;5142842;27;45274;-74
2023/07/21 10:34:43;;;;;;;;;9.00;9.00;;;;;;;;5143230;27;45419;-76
2023/07/21 10:37:09;;;;;;;;;9.67;9.33;;;;;;;;5123326;27;46366;-78
2023/07/21 10:39:41;;;;;;;;;8.67;8.33;;;;;;;;5141862;27;45384;-75
2023/07/21 10:42:07;;;;;;;;;12.00;7.67;;;;;;;;5142477;27;45324;-74
2023/07/21 10:44:40;;;;;;;;;10.00;9.67;;;;;;;;5143130;27;45361;-76
2023/07/21 10:47:10;;;;;;;;;8.67;6.67;;;;;;;;5142123;27;45487;-74
2023/07/21 10:49:35;;;;;;;;;8.00;8.00;;;;;;;;5142554;27;46260;-77
2023/07/21 10:52:00;;;;;;;;;7.33;7.33;;;;;;;;5124369;27;46127;-76
2023/07/21 10:54:26;;;;;;;;;8.67;8.67;;;;;;;;5130684;27;45354;-76
2023/07/21 10:56:51;;;;;;;;;9.33;9.33;;;;;;;;5121579;27;45528;-75
2023/07/21 10:59:18;;;;;;;;;9.00;7.67;;;;;;;;5118450;27;46026;-76
2023/07/21 11:01:44;;;;;;;;;7.33;7.00;;;;;;;;5113077;27;46101;-77
2023/07/21 11:04:11;;;;;;;;;9.33;9.33;;;;;;;;5138279;27;45309;-76
2023/07/21 11:06:43;;;;;;;;;8.00;8.00;;;;;;;;5126173;27;45292;-74
2023/07/21 11:09:11;;;;;;;;;8.00;8.00;;;;;;;;5142322;27;46023;-74
2023/07/21 11:11:44;;;;;;;;;7.67;7.67;;;;;;;;5123802;27;45363;-75
2023/07/21 11:14:11;;;;;;;;;8.33;8.33;;;;;;;;5135480;27;45647;-75
2023/07/21 11:16:56;;;;;;;;;8.67;7.67;;;;;;;;5121533;27;45481;-75
2023/07/21 11:19:22;;;;;;;;;8.00;8.00;;;;;;;;5102474;27;47315;-77
2023/07/21 11:21:47;;;;;;;;;6.00;6.00;;;;;;;;5096003;27;45733;-77
2023/07/21 11:24:20;;;;;;;;;7.00;7.00;;;;;;;;5104770;27;45258;-76
2023/07/21 11:26:46;;;;;;;;;6.00;6.00;;;;;;;;5109174;27;45685;-74
2023/07/21 11:29:11;;;;;;;;;6.00;6.00;;;;;;;;5082268;27;47232;-74
2023/07/21 11:31:37;;;;;;;;;7.00;7.00;;;;;;;;5117758;27;45386;-76
2023/07/21 11:34:02;;;;;;;;;7.67;7.33;;;;;;;;5114889;27;45568;-75
2023/07/21 11:36:31;;;;;;;;;6.00;6.00;;;;;;;;5112798;27;45413;-77
2023/07/21 11:39:01;;;;;;;;;6.33;6.00;;;;;;;;5118087;27;46059;-75
2023/07/21 11:41:32;;;;;;;;;6.33;6.00;;;;;;;;5113990;27;45374;-77
2023/07/21 11:43:57;;;;;;;;;7.00;7.00;;;;;;;;5108900;27;45578;-76
2023/07/21 11:46:23;;;;;;;;;7.33;7.33;;;;;;;;5112371;27;45533;-76
2023/07/21 11:48:49;;;;;;;;;6.00;6.00;;;;;;;;5115020;27;45506;-78
2023/07/21 11:51:15;;;;;;;;;6.00;6.00;;;;;;;;5115483;27;45740;-77
2023/07/21 11:53:44;;;;;;;;;5.33;5.33;;;;;;;;5116695;27;45400;-78
2023/07/21 11:56:10;;;;;;;;;4.33;4.33;;;;;;;;5097484;27;47142;-78
2023/07/21 11:58:35;;;;;;;;;5.67;5.67;;;;;;;;5099526;27;47092;-78
2023/07/21 12:01:00;;;;;;;;;7.00;7.00;;;;;;;;5111818;27;45551;-78
2023/07/21 12:03:26;;;;;;;;;5.33;5.33;;;;;;;;5096194;27;45483;-78
2023/07/21 12:05:51;;;;;;;;;6.33;6.33;;;;;;;;5115991;27;45447;-78
2023/07/21 12:08:16;;;;;;;;;4.33;4.33;;;;;;;;5117173;27;45487;-78
2023/07/21 12:10:42;;;;;;;;;5.33;5.00;;;;;;;;5115702;27;45418;-78
2023/07/21 12:13:07;;;;;;;;;5.67;5.67;;;;;;;;5098818;27;45879;-78
2023/07/21 12:15:33;;;;;;;;;6.00;5.00;;;;;;;;5102346;27;47222;-78
2023/07/21 12:17:58;;;;;;;;;7.00;7.00;;;;;;;;5102850;27;46232;-78
2023/07/21 12:20:24;;;;;;;;;6.00;5.00;;;;;;;;5131082;27;45347;-77
2023/07/21 12:22:49;;;;;;;;;6.00;5.00;;;;;;;;5124509;27;45436;-80
2023/07/21 12:25:14;;;;;;;;;6.00;5.33;;;;;;;;5112026;27;45675;-78
2023/07/21 12:27:39;;;;;;;;;6.67;4.67;;;;;;;;5114569;27;45532;-78
2023/07/21 12:30:08;;;;;;;;;6.33;6.00;;;;;;;;5117950;27;45378;-78
2023/07/21 12:32:33;;;;;;;;;5.00;5.00;;;;;;;;5115856;27;45534;-79
2023/07/21 12:34:59;;;;;;;;;5.00;4.00;;;;;;;;5097954;27;45989;-78
2023/07/21 12:37:24;;;;;;;;;4.33;4.33;;;;;;;;5117472;27;46526;-79
2023/07/21 12:39:50;;;;;;;;;5.67;5.33;;;;;;;;5092370;27;45974;-78
2023/07/21 12:42:15;;;;;;;;;5.33;5.33;;;;;;;;5115549;27;45892;-77
2023/07/21 12:44:40;;;;;;;;;5.67;5.67;;;;;;;;5097736;27;46532;-78
2023/07/21 12:47:06;;;;;;;;;5.67;5.67;;;;;;;;5116410;27;46137;-76
2023/07/21 12:49:32;;;;;;;;;4.33;4.33;;;;;;;;5118536;27;46344;-77
2023/07/21 12:51:57;;;;;;;;;5.33;4.00;;;;;;;;5114387;27;46526;-78
2023/07/21 12:54:22;;;;;;;;;5.33;4.67;;;;;;;;5119037;27;45442;-77
2023/07/21 12:56:47;;;;;;;;;4.67;4.67;;;;;;;;5122226;27;45448;-77
2023/07/21 12:59:12;;;;;;;;;5.33;5.33;;;;;;;;5122565;27;45463;-76
2023/07/21 13:01:38;;;;;;;;;5.00;5.00;;;;;;;;5130012;27;45742;-74
2023/07/21 13:04:03;;;;;;;;;7.00;5.00;;;;;;;;5119824;27;45689;-76
2023/07/21 13:06:28;;;;;;;;;4.00;4.00;;;;;;;;5093433;27;48320;-77
2023/07/21 13:08:54;;;;;;;;;5.67;5.67;;;;;;;;5133057;27;45297;-74
2023/07/21 13:11:19;;;;;;;;;4.00;3.67;;;;;;;;5129385;27;45992;-77
2023/07/21 13:13:47;;;;;;;;;4.33;4.33;;;;;;;;5124647;27;45721;-76
2023/07/21 13:16:12;;;;;;;;;5.00;5.00;;;;;;;;5113947;27;45428;-75
2023/07/21 13:18:37;;;;;;;;;6.00;6.00;;;;;;;;5104370;27;45979;-77
2023/07/21 13:21:03;;;;;;;;;5.33;4.00;;;;;;;;5118623;27;45475;-78
2023/07/21 13:23:28;;;;;;;;;4.67;4.67;;;;;;;;5095438;27;46204;-77
2023/07/21 13:25:53;;;;;;;;;3.67;3.67;;;;;;;;5117231;27;45385;-77
2023/07/21 13:28:18;;;;;;;;;7.33;5.00;;;;;;;;5118108;27;45739;-78
2023/07/21 13:30:43;;;;;;;;;7.00;6.00;;;;;;;;5099104;27;45547;-78
2023/07/21 13:33:09;;;;;;;;;4.67;4.67;;;;;;;;5119062;27;45633;-78
2023/07/21 13:35:35;;;;;;;;;7.00;5.67;;;;;;;;5120677;27;45371;-77
2023/07/21 13:38:00;;;;;;;;;6.00;5.00;;;;;;;;5079052;27;45488;-77
2023/07/21 13:40:25;;;;;;;;;5.33;5.33;;;;;;;;5118806;27;45786;-76
2023/07/21 13:42:51;;;;;;;;;4.00;4.00;;;;;;;;5113746;27;46389;-78
2023/07/21 13:45:16;;;;;;;;;4.00;4.00;;;;;;;;5111815;27;46059;-77
2023/07/21 13:47:41;;;;;;;;;7.67;6.67;;;;;;;;5118065;27;45363;-76
2023/07/21 13:50:08;;;;;;;;;4.67;4.67;;;;;;;;5116657;27;45398;-76
2023/07/21 13:52:34;;;;;;;;;5.67;5.67;;;;;;;;5099931;27;45385;-76
2023/07/21 13:54:59;;;;;;;;;6.00;6.00;;;;;;;;5100588;27;48261;-76
2023/07/21 13:57:24;;;;;;;;;6.00;5.00;;;;;;;;5099772;27;45349;-79
2023/07/21 13:59:49;;;;;;;;;5.33;5.33;;;;;;;;5103213;27;45310;-77
2023/07/21 14:02:15;;;;;;;;;6.00;6.00;;;;;;;;5085464;27;46016;-78
2023/07/21 14:04:42;;;;;;;;;5.33;5.00;;;;;;;;5113921;27;45444;-79
2023/07/21 14:07:08;;;;;;;;;7.00;7.00;;;;;;;;5099196;27;46270;-78
2023/07/21 14:09:33;;;;;;;;;6.33;6.33;;;;;;;;5116213;27;45670;-81
2023/07/21 14:11:58;;;;;;;;;6.00;6.00;;;;;;;;5114425;27;45530;-76
2023/07/21 14:14:23;;;;;;;;;4.33;4.00;;;;;;;;5118045;27;46137;-77
2023/07/21 14:16:49;;;;;;;;;5.00;5.00;;;;;;;;5112289;27;45526;-77
2023/07/21 14:19:14;;;;;;;;;8.33;7.00;;;;;;;;5118679;27;45483;-77
2023/07/21 14:21:39;;;;;;;;;7.33;6.67;;;;;;;;5102201;27;46957;-78
2023/07/21 14:24:05;;;;;;;;;4.67;4.67;;;;;;;;5121553;27;45886;-77
2023/07/21 14:26:30;;;;;;;;;5.67;5.33;;;;;;;;5120392;27;45315;-78
2023/07/21 14:28:55;;;;;;;;;7.00;6.00;;;;;;;;5102380;27;45732;-80
2023/07/21 14:31:20;;;;;;;;;5.67;5.67;;;;;;;;5114723;27;45423;-78
2023/07/21 14:33:48;;;;;;;;;7.33;7.33;;;;;;;;5099358;27;47343;-78
2023/07/21 14:36:13;;;;;;;;;3.00;3.00;;;;;;;;5116973;27;45279;-79